Readlyn, Iowa
Current Conditions -  °F | °C
As of 1:15 PM on Tuesday 21 Oct 2014 (Local Time) from KOLZ Reporting Station
Clear Clear  
Wind Chill: 55°   Ceiling: Unl
Heat Index: 55°   Visibility: 10mi
Dew Point: 39°   Wind: 9mph
Humidity: 54%   Direction: 70°ENE
Pressure: 30.19"   Gusts: NA
Location:  42.7°N, 92.23°W
Report Text: KOLZ 211815Z AUTO 07008KT 10SM CLR 13/04 A3019 RMK AO2
Loading
Personal Weather Stations






























Interactive Weather Map
Tropical Storm Tracking
New forecast layout! Learn more

10-Day Weather Forecast

Advertisements
Track Severe Weather on mobile